Kidron, Ohio
Current Conditions -  °F | °C
As of 8:39 PM on Thursday 27 Nov 2014 (Local Time) from KBJJ Reporting Station
Light Snow Light Snow  
Wind Chill: -7°   Ceiling: 2300
Heat Index: -2°   Visibility: 1.5mi
Dew Point: -3°   Wind: 12mph
Humidity: 89%   Direction: 260°W
Pressure: 30.22"   Gusts: NA
Location:  40.74°N, 81.74°W
Report Text: KBJJ 280139Z AUTO 26010KT 1 1/2SM -SN BR SCT011 BKN023 OVC036 M02/M03 A3022 RMK AO2 SNE11B26 P0000 T10171033 TSNO
Loading
Personal Weather Stations






























Interactive Weather Map New forecast layout! Learn more

10-Day Weather Forecast

Advertisements
Track Severe Weather on mobile